RYR220 ESMX-LEAL
Flight info
| Callsign | RYR220 |
|---|---|
| Flight time | 3h 2m |
| Altitude | 36000 |
| Route | MISMA N872 ERNOV DCT KOPIM N872 ALS Z703 KESUR DCT NIK DCT CIV/N0453F370 N872 MEDIL DCT KOVIN DCT DUCRA UM728 RESMI UN857 DISAK DCT DIRMO DCT GUERE DCT EVPOK DCT AGN DCT ANETO DCT POSSY DCT XIMPE DCT RIMES N860 VLC |
| Aircraft | B738/M-SDE2E3FGHIRWXY/LB1 |
Departure
| Time | 2026-05-06 17:49 |
|---|---|
| Airport | Växjö Kronoberg Airport (ESMX) |
Arrival
| Time | 2026-05-06 20:51 |
|---|---|
| Airport | Alicante-Elche Miguel Hernández Airport (LEAL) |
| Time | Latitude | Longitude | Altitude | Speed | Heading |
|---|---|---|---|---|---|
| 2026-05-06 17:03 | 56.92445 | 14.73032 | 617 ft | 0 kts | 143° |
| 2026-05-06 17:03 | 56.92446 | 14.73032 | 617 ft | 0 kts | 143° |
| 2026-05-06 17:43 | 56.92450 | 14.73025 | 605 ft | 2 kts | 143° |
| 2026-05-06 17:44 | 56.92463 | 14.73007 | 612 ft | 2 kts | 143° |
| 2026-05-06 17:44 | 56.92477 | 14.72990 | 609 ft | 2 kts | 151° |
| 2026-05-06 17:44 | 56.92497 | 14.72975 | 622 ft | 3 kts | 179° |
| 2026-05-06 17:44 | 56.92500 | 14.72975 | 622 ft | 0 kts | 182° |
| 2026-05-06 17:45 | 56.92496 | 14.72974 | 619 ft | 4 kts | 186° |
| 2026-05-06 17:45 | 56.92451 | 14.72956 | 605 ft | 9 kts | 192° |
| 2026-05-06 17:46 | 56.92375 | 14.72925 | 605 ft | 13 kts | 192° |
| 2026-05-06 17:46 | 56.92288 | 14.72887 | 610 ft | 13 kts | 195° |
| 2026-05-06 17:46 | 56.92203 | 14.72848 | 603 ft | 14 kts | 194° |
| 2026-05-06 17:46 | 56.92109 | 14.72804 | 609 ft | 14 kts | 194° |
| 2026-05-06 17:47 | 56.92023 | 14.72750 | 616 ft | 12 kts | 213° |
| 2026-05-06 17:47 | 56.91984 | 14.72644 | 608 ft | 9 kts | 256° |
| 2026-05-06 17:47 | 56.91982 | 14.72584 | 606 ft | 2 kts | 277° |
| 2026-05-06 17:47 | 56.92001 | 14.72445 | 601 ft | 16 kts | 304° |
| 2026-05-06 17:48 | 56.92078 | 14.72434 | 610 ft | 0 kts | 12° |
| 2026-05-06 17:48 | 56.92253 | 14.72509 | 606 ft | 69 kts | 13° |
| 2026-05-06 17:48 | 56.92978 | 14.72816 | 607 ft | 144 kts | 13° |
| 2026-05-06 17:49 | 56.94156 | 14.73311 | 883 ft | 192 kts | 15° |
| 2026-05-06 17:49 | 56.95587 | 14.73922 | 1435 ft | 231 kts | 8° |
| 2026-05-06 17:49 | 56.97267 | 14.73337 | 1969 ft | 262 kts | 328° |
| 2026-05-06 17:49 | 56.98456 | 14.70886 | 3120 ft | 265 kts | 291° |
| 2026-05-06 17:50 | 56.98653 | 14.69819 | 3525 ft | 262 kts | 280° |
| 2026-05-06 17:50 | 56.98708 | 14.67830 | 4176 ft | 258 kts | 259° |
| 2026-05-06 17:50 | 56.97985 | 14.64875 | 5063 ft | 258 kts | 231° |
| 2026-05-06 17:50 | 56.96885 | 14.62214 | 5839 ft | 266 kts | 234° |
| 2026-05-06 17:51 | 56.95841 | 14.59374 | 6647 ft | 271 kts | 239° |
| 2026-05-06 17:51 | 56.94869 | 14.56393 | 7527 ft | 272 kts | 242° |
| 2026-05-06 17:51 | 56.93976 | 14.53344 | 8385 ft | 271 kts | 245° |
| 2026-05-06 17:51 | 56.93140 | 14.50240 | 8827 ft | 273 kts | 246° |
| 2026-05-06 17:52 | 56.92341 | 14.47066 | 9264 ft | 277 kts | 247° |
| 2026-05-06 17:52 | 56.91562 | 14.43821 | 9706 ft | 278 kts | 248° |
| 2026-05-06 17:52 | 56.90796 | 14.40517 | 10133 ft | 288 kts | 249° |
| 2026-05-06 17:52 | 56.90007 | 14.37031 | 10557 ft | 304 kts | 249° |
| 2026-05-06 17:53 | 56.89190 | 14.33367 | 10982 ft | 318 kts | 249° |
| 2026-05-06 17:53 | 56.88359 | 14.29599 | 11403 ft | 332 kts | 249° |
| 2026-05-06 17:53 | 56.87483 | 14.25602 | 11833 ft | 345 kts | 249° |
| 2026-05-06 17:53 | 56.86579 | 14.21466 | 12263 ft | 353 kts | 249° |
| 2026-05-06 17:54 | 56.85667 | 14.17285 | 12675 ft | 354 kts | 249° |
| 2026-05-06 17:54 | 56.84759 | 14.13124 | 13095 ft | 352 kts | 249° |
| 2026-05-06 17:54 | 56.83851 | 14.08966 | 13522 ft | 352 kts | 249° |
| 2026-05-06 17:54 | 56.82942 | 14.04806 | 13937 ft | 352 kts | 249° |
| 2026-05-06 17:55 | 56.82033 | 14.00650 | 14318 ft | 354 kts | 249° |
| 2026-05-06 17:55 | 56.81463 | 13.98049 | 14558 ft | 355 kts | 249° |
| 2026-05-06 17:55 | 56.80541 | 13.93849 | 14960 ft | 357 kts | 249° |
| 2026-05-06 17:55 | 56.79616 | 13.89645 | 15361 ft | 358 kts | 249° |
| 2026-05-06 17:56 | 56.78682 | 13.85406 | 15772 ft | 360 kts | 249° |
| 2026-05-06 17:56 | 56.77441 | 13.79784 | 16317 ft | 361 kts | 249° |
| 2026-05-06 17:56 | 56.76815 | 13.76958 | 16595 ft | 362 kts | 248° |
| 2026-05-06 17:56 | 56.75867 | 13.72683 | 17016 ft | 363 kts | 248° |
| 2026-05-06 17:57 | 56.74918 | 13.68407 | 17449 ft | 364 kts | 248° |
| 2026-05-06 17:57 | 56.73965 | 13.64130 | 17875 ft | 365 kts | 248° |
| 2026-05-06 17:57 | 56.73009 | 13.59842 | 18309 ft | 366 kts | 248° |
| 2026-05-06 17:57 | 56.71353 | 13.54486 | 18811 ft | 369 kts | 233° |
| 2026-05-06 17:58 | 56.70218 | 13.52089 | 19072 ft | 371 kts | 227° |
| 2026-05-06 17:58 | 56.68380 | 13.48760 | 19487 ft | 372 kts | 226° |
| 2026-05-06 17:58 | 56.66551 | 13.45498 | 19878 ft | 374 kts | 226° |
| 2026-05-06 17:58 | 56.64692 | 13.42188 | 20268 ft | 375 kts | 226° |
| 2026-05-06 17:59 | 56.62825 | 13.38855 | 20666 ft | 376 kts | 226° |
| 2026-05-06 17:59 | 56.60956 | 13.35509 | 21090 ft | 378 kts | 226° |
| 2026-05-06 17:59 | 56.59080 | 13.32143 | 21505 ft | 380 kts | 227° |
| 2026-05-06 17:59 | 56.57198 | 13.28763 | 21932 ft | 381 kts | 227° |
| 2026-05-06 18:00 | 56.55307 | 13.25368 | 22368 ft | 383 kts | 227° |
| 2026-05-06 18:00 | 56.53413 | 13.21969 | 22791 ft | 384 kts | 227° |
| 2026-05-06 18:00 | 56.51503 | 13.18547 | 23245 ft | 386 kts | 227° |
| 2026-05-06 18:00 | 56.49589 | 13.15123 | 23664 ft | 388 kts | 227° |
| 2026-05-06 18:01 | 56.47662 | 13.11679 | 24033 ft | 389 kts | 226° |
| 2026-05-06 18:01 | 56.45730 | 13.08232 | 24424 ft | 391 kts | 226° |
| 2026-05-06 18:01 | 56.43783 | 13.04764 | 24736 ft | 395 kts | 226° |
| 2026-05-06 18:01 | 56.41806 | 13.01247 | 24865 ft | 404 kts | 226° |
| 2026-05-06 18:02 | 56.39873 | 12.97812 | 24924 ft | 413 kts | 226° |
| 2026-05-06 18:02 | 56.37776 | 12.94092 | 25000 ft | 423 kts | 226° |
| 2026-05-06 18:02 | 56.35679 | 12.90381 | 25083 ft | 431 kts | 226° |
| 2026-05-06 18:02 | 56.33497 | 12.86525 | 25202 ft | 437 kts | 225° |
| 2026-05-06 18:03 | 56.31343 | 12.82725 | 25435 ft | 440 kts | 225° |
| 2026-05-06 18:03 | 56.29152 | 12.78868 | 25838 ft | 439 kts | 225° |
| 2026-05-06 18:03 | 56.26976 | 12.75043 | 26349 ft | 435 kts | 225° |
| 2026-05-06 18:03 | 56.24819 | 12.71258 | 26878 ft | 432 kts | 225° |
| 2026-05-06 18:04 | 56.22671 | 12.67490 | 27298 ft | 431 kts | 225° |
| 2026-05-06 18:04 | 56.20523 | 12.63729 | 27883 ft | 426 kts | 225° |
| 2026-05-06 18:04 | 56.18414 | 12.60045 | 28483 ft | 421 kts | 224° |
| 2026-05-06 18:04 | 56.16363 | 12.56374 | 28770 ft | 423 kts | 227° |
| 2026-05-06 18:05 | 56.14462 | 12.52322 | 29036 ft | 426 kts | 231° |
| 2026-05-06 18:05 | 56.12606 | 12.48173 | 29448 ft | 424 kts | 230° |
| 2026-05-06 18:05 | 56.10717 | 12.44110 | 29958 ft | 421 kts | 229° |
| 2026-05-06 18:05 | 56.08833 | 12.40112 | 30362 ft | 419 kts | 229° |
| 2026-05-06 18:06 | 56.06963 | 12.36113 | 30684 ft | 419 kts | 230° |
| 2026-05-06 18:06 | 56.05091 | 12.32100 | 30997 ft | 419 kts | 230° |
| 2026-05-06 18:06 | 56.03226 | 12.28106 | 31318 ft | 418 kts | 230° |
| 2026-05-06 18:06 | 56.01362 | 12.24127 | 31674 ft | 417 kts | 230° |
| 2026-05-06 18:07 | 55.99498 | 12.20161 | 32006 ft | 416 kts | 230° |
| 2026-05-06 18:07 | 55.97656 | 12.16257 | 32310 ft | 415 kts | 230° |
| 2026-05-06 18:07 | 55.95766 | 12.12261 | 32494 ft | 418 kts | 229° |
| 2026-05-06 18:07 | 55.93886 | 12.08292 | 32669 ft | 420 kts | 229° |
| 2026-05-06 18:08 | 55.92023 | 12.04366 | 33029 ft | 418 kts | 229° |
| 2026-05-06 18:08 | 55.90129 | 12.00378 | 33434 ft | 415 kts | 229° |
| 2026-05-06 18:08 | 55.88348 | 11.96632 | 33766 ft | 414 kts | 230° |
| 2026-05-06 18:08 | 55.86487 | 11.92726 | 34016 ft | 414 kts | 230° |
| 2026-05-06 18:09 | 55.84615 | 11.88800 | 34256 ft | 414 kts | 230° |
| 2026-05-06 18:09 | 55.82747 | 11.84890 | 34486 ft | 414 kts | 230° |
| 2026-05-06 18:09 | 55.80882 | 11.80994 | 34673 ft | 415 kts | 230° |
| 2026-05-06 18:09 | 55.79007 | 11.77080 | 34858 ft | 416 kts | 230° |
| 2026-05-06 18:10 | 55.77134 | 11.73181 | 35063 ft | 416 kts | 230° |
| 2026-05-06 18:10 | 55.75251 | 11.69265 | 35257 ft | 416 kts | 230° |
| 2026-05-06 18:10 | 55.71469 | 11.61418 | 35475 ft | 420 kts | 230° |
| 2026-05-06 18:11 | 55.69566 | 11.57478 | 35712 ft | 420 kts | 230° |
| 2026-05-06 18:11 | 55.67669 | 11.53558 | 35941 ft | 419 kts | 230° |
| 2026-05-06 18:11 | 55.63843 | 11.45667 | 35956 ft | 425 kts | 230° |
| 2026-05-06 18:12 | 55.59970 | 11.37712 | 35965 ft | 431 kts | 230° |
| 2026-05-06 18:12 | 55.56033 | 11.29659 | 35962 ft | 435 kts | 229° |
| 2026-05-06 18:13 | 55.52055 | 11.21549 | 35952 ft | 438 kts | 229° |
| 2026-05-06 18:13 | 55.48055 | 11.13417 | 35956 ft | 439 kts | 229° |
| 2026-05-06 18:14 | 55.44051 | 11.05302 | 35945 ft | 438 kts | 229° |
| 2026-05-06 18:14 | 55.40114 | 10.97349 | 35948 ft | 437 kts | 229° |
| 2026-05-06 18:15 | 55.36117 | 10.89301 | 35945 ft | 437 kts | 229° |
| 2026-05-06 18:15 | 55.32115 | 10.81270 | 35944 ft | 437 kts | 229° |
| 2026-05-06 18:16 | 55.28106 | 10.73254 | 35937 ft | 437 kts | 229° |
| 2026-05-06 18:16 | 55.24109 | 10.65286 | 35947 ft | 437 kts | 229° |
| 2026-05-06 18:17 | 55.20079 | 10.57278 | 35939 ft | 438 kts | 229° |
| 2026-05-06 18:17 | 55.16044 | 10.49288 | 35940 ft | 439 kts | 229° |
| 2026-05-06 18:18 | 55.11991 | 10.41289 | 35941 ft | 439 kts | 229° |
| 2026-05-06 18:18 | 55.07933 | 10.33307 | 35928 ft | 439 kts | 229° |
| 2026-05-06 18:19 | 55.03887 | 10.25373 | 35937 ft | 440 kts | 229° |
| 2026-05-06 18:19 | 54.99818 | 10.17420 | 35935 ft | 441 kts | 229° |
| 2026-05-06 18:20 | 54.95725 | 10.09446 | 35938 ft | 441 kts | 229° |
| 2026-05-06 18:20 | 54.91633 | 10.01498 | 35938 ft | 441 kts | 228° |
| 2026-05-06 18:21 | 54.87379 | 9.94053 | 35941 ft | 442 kts | 223° |
| 2026-05-06 18:21 | 54.82879 | 9.86791 | 35920 ft | 442 kts | 224° |
| 2026-05-06 18:22 | 54.78523 | 9.79249 | 35931 ft | 443 kts | 226° |
| 2026-05-06 18:22 | 54.74239 | 9.71646 | 35930 ft | 443 kts | 226° |
| 2026-05-06 18:23 | 54.69907 | 9.64025 | 35920 ft | 444 kts | 226° |
| 2026-05-06 18:23 | 54.65550 | 9.56436 | 35914 ft | 444 kts | 226° |
| 2026-05-06 18:24 | 54.61178 | 9.48867 | 35905 ft | 444 kts | 225° |
| 2026-05-06 18:24 | 54.56808 | 9.41330 | 35914 ft | 445 kts | 225° |
| 2026-05-06 18:25 | 54.52419 | 9.33784 | 35921 ft | 446 kts | 225° |
| 2026-05-06 18:25 | 54.48025 | 9.26253 | 35916 ft | 445 kts | 225° |
| 2026-05-06 18:26 | 54.43634 | 9.18751 | 35917 ft | 445 kts | 225° |
| 2026-05-06 18:26 | 54.39239 | 9.11264 | 35902 ft | 445 kts | 225° |
| 2026-05-06 18:27 | 54.34866 | 9.03840 | 35916 ft | 445 kts | 225° |
| 2026-05-06 18:27 | 54.30532 | 8.96505 | 35912 ft | 446 kts | 225° |
| 2026-05-06 18:28 | 54.26118 | 8.89058 | 35913 ft | 446 kts | 225° |
| 2026-05-06 18:28 | 54.21691 | 8.81613 | 35907 ft | 446 kts | 225° |
| 2026-05-06 18:29 | 54.17255 | 8.74176 | 35893 ft | 446 kts | 225° |
| 2026-05-06 18:29 | 54.12811 | 8.66750 | 35907 ft | 447 kts | 225° |
| 2026-05-06 18:30 | 54.08372 | 8.59355 | 35904 ft | 447 kts | 225° |
| 2026-05-06 18:30 | 54.03913 | 8.51951 | 35901 ft | 447 kts | 225° |
| 2026-05-06 18:31 | 53.99457 | 8.44576 | 35897 ft | 448 kts | 225° |
| 2026-05-06 18:31 | 53.95018 | 8.37250 | 35892 ft | 448 kts | 225° |
| 2026-05-06 18:32 | 53.90542 | 8.29887 | 35906 ft | 448 kts | 224° |
| 2026-05-06 18:32 | 53.86052 | 8.22525 | 35905 ft | 449 kts | 224° |
| 2026-05-06 18:33 | 53.81560 | 8.15183 | 35915 ft | 449 kts | 224° |
| 2026-05-06 18:33 | 53.77068 | 8.07863 | 35912 ft | 448 kts | 224° |
| 2026-05-06 18:34 | 53.72565 | 8.00549 | 35905 ft | 448 kts | 224° |
| 2026-05-06 18:34 | 53.68167 | 7.93426 | 35910 ft | 448 kts | 224° |
| 2026-05-06 18:35 | 53.63658 | 7.86146 | 35915 ft | 449 kts | 224° |
| 2026-05-06 18:35 | 53.59135 | 7.78868 | 35922 ft | 449 kts | 224° |
| 2026-05-06 18:36 | 53.54610 | 7.71609 | 35914 ft | 449 kts | 224° |
| 2026-05-06 18:36 | 53.50082 | 7.64367 | 35913 ft | 449 kts | 224° |
| 2026-05-06 18:37 | 53.46317 | 7.58361 | 35909 ft | 449 kts | 224° |
| 2026-05-06 18:37 | 53.41043 | 7.49976 | 35935 ft | 449 kts | 224° |
| 2026-05-06 18:38 | 53.36492 | 7.42765 | 35937 ft | 450 kts | 224° |
| 2026-05-06 18:38 | 53.31944 | 7.35580 | 35938 ft | 450 kts | 224° |
| 2026-05-06 18:39 | 53.27383 | 7.28398 | 35937 ft | 450 kts | 224° |
| 2026-05-06 18:40 | 53.20534 | 7.17652 | 35932 ft | 450 kts | 224° |
| 2026-05-06 18:40 | 53.16734 | 7.11712 | 35930 ft | 450 kts | 224° |
| 2026-05-06 18:41 | 53.12161 | 7.04584 | 35923 ft | 450 kts | 224° |
| 2026-05-06 18:41 | 53.06926 | 6.96450 | 35926 ft | 451 kts | 224° |
| 2026-05-06 18:42 | 53.02343 | 6.89352 | 35926 ft | 451 kts | 223° |
| 2026-05-06 18:42 | 52.98497 | 6.83412 | 35932 ft | 451 kts | 223° |
| 2026-05-06 18:43 | 52.93926 | 6.76372 | 35926 ft | 451 kts | 223° |
| 2026-05-06 18:43 | 52.89322 | 6.69304 | 35927 ft | 451 kts | 223° |
| 2026-05-06 18:44 | 52.84708 | 6.62241 | 35926 ft | 451 kts | 223° |
| 2026-05-06 18:44 | 52.80087 | 6.55189 | 35924 ft | 452 kts | 223° |
| 2026-05-06 18:45 | 52.75465 | 6.48157 | 35919 ft | 452 kts | 223° |
| 2026-05-06 18:45 | 52.70833 | 6.41131 | 35924 ft | 452 kts | 223° |
| 2026-05-06 18:46 | 52.66190 | 6.34109 | 35921 ft | 453 kts | 223° |
| 2026-05-06 18:46 | 52.61540 | 6.27099 | 35921 ft | 453 kts | 223° |
| 2026-05-06 18:47 | 52.56923 | 6.20157 | 35914 ft | 453 kts | 223° |
| 2026-05-06 18:47 | 52.52264 | 6.13175 | 35924 ft | 453 kts | 223° |
| 2026-05-06 18:48 | 52.47606 | 6.06215 | 35923 ft | 453 kts | 223° |
| 2026-05-06 18:48 | 52.43014 | 5.99374 | 35923 ft | 453 kts | 223° |
| 2026-05-06 18:49 | 52.38342 | 5.92434 | 35924 ft | 454 kts | 223° |
| 2026-05-06 18:49 | 52.33657 | 5.85495 | 35923 ft | 454 kts | 223° |
| 2026-05-06 18:50 | 52.28968 | 5.78572 | 35919 ft | 455 kts | 223° |
| 2026-05-06 18:50 | 52.24272 | 5.71659 | 35919 ft | 455 kts | 223° |
| 2026-05-06 18:51 | 52.19567 | 5.64752 | 35915 ft | 455 kts | 223° |
| 2026-05-06 18:51 | 52.14853 | 5.57853 | 35911 ft | 455 kts | 222° |
| 2026-05-06 18:52 | 52.10141 | 5.50979 | 35930 ft | 455 kts | 222° |
| 2026-05-06 18:52 | 52.05418 | 5.44108 | 35920 ft | 455 kts | 222° |
| 2026-05-06 18:53 | 52.00689 | 5.37248 | 35923 ft | 456 kts | 223° |
| 2026-05-06 18:53 | 51.95955 | 5.30402 | 35928 ft | 456 kts | 222° |
| 2026-05-06 18:54 | 51.91209 | 5.23558 | 35918 ft | 457 kts | 222° |
| 2026-05-06 18:54 | 51.86458 | 5.16728 | 35930 ft | 457 kts | 222° |
| 2026-05-06 18:55 | 51.81696 | 5.09902 | 35927 ft | 458 kts | 222° |
| 2026-05-06 18:55 | 51.76922 | 5.03078 | 35929 ft | 458 kts | 222° |
| 2026-05-06 18:56 | 51.72265 | 4.96441 | 35937 ft | 458 kts | 222° |
| 2026-05-06 18:56 | 51.67483 | 4.89646 | 35932 ft | 458 kts | 222° |
| 2026-05-06 18:57 | 51.62691 | 4.82855 | 35940 ft | 458 kts | 222° |
| 2026-05-06 18:57 | 51.57894 | 4.76080 | 35935 ft | 459 kts | 222° |
| 2026-05-06 18:58 | 51.53094 | 4.69318 | 35938 ft | 459 kts | 222° |
| 2026-05-06 18:58 | 51.47998 | 4.63134 | 35927 ft | 460 kts | 209° |
| 2026-05-06 18:59 | 51.42364 | 4.58204 | 36015 ft | 462 kts | 210° |
| 2026-05-06 18:59 | 51.36750 | 4.53151 | 36208 ft | 462 kts | 210° |
| 2026-05-06 18:59 | 51.33946 | 4.50625 | 36314 ft | 462 kts | 210° |
| 2026-05-06 19:00 | 51.31181 | 4.48143 | 36414 ft | 462 kts | 210° |
| 2026-05-06 19:00 | 51.28375 | 4.45634 | 36522 ft | 462 kts | 210° |
| 2026-05-06 19:00 | 51.25567 | 4.43131 | 36625 ft | 461 kts | 210° |
| 2026-05-06 19:01 | 51.19949 | 4.38143 | 36800 ft | 461 kts | 210° |
| 2026-05-06 19:01 | 51.17152 | 4.35666 | 36907 ft | 460 kts | 210° |
| 2026-05-06 19:01 | 51.14350 | 4.33188 | 36935 ft | 461 kts | 210° |
| 2026-05-06 19:02 | 51.08721 | 4.28221 | 36945 ft | 462 kts | 210° |
| 2026-05-06 19:02 | 51.03084 | 4.23260 | 36933 ft | 462 kts | 210° |
| 2026-05-06 19:03 | 50.97511 | 4.18369 | 36935 ft | 461 kts | 210° |
| 2026-05-06 19:03 | 50.91887 | 4.13447 | 36935 ft | 461 kts | 210° |
| 2026-05-06 19:04 | 50.86252 | 4.08529 | 36928 ft | 461 kts | 210° |
| 2026-05-06 19:04 | 50.80637 | 4.03641 | 36923 ft | 461 kts | 210° |
| 2026-05-06 19:05 | 50.75129 | 3.98861 | 36926 ft | 461 kts | 210° |
| 2026-05-06 19:05 | 50.69497 | 3.93986 | 36921 ft | 461 kts | 209° |
| 2026-05-06 19:06 | 50.63858 | 3.89118 | 36924 ft | 461 kts | 209° |
| 2026-05-06 19:06 | 50.58226 | 3.84270 | 36912 ft | 462 kts | 209° |
| 2026-05-06 19:07 | 50.52589 | 3.79430 | 36913 ft | 462 kts | 209° |
| 2026-05-06 19:07 | 50.46933 | 3.74588 | 36916 ft | 462 kts | 209° |
| 2026-05-06 19:08 | 50.41280 | 3.69761 | 36926 ft | 463 kts | 209° |
| 2026-05-06 19:08 | 50.35652 | 3.64970 | 36917 ft | 463 kts | 209° |
| 2026-05-06 19:09 | 50.29982 | 3.60155 | 36922 ft | 464 kts | 209° |
| 2026-05-06 19:09 | 50.24298 | 3.55342 | 36920 ft | 464 kts | 209° |
| 2026-05-06 19:10 | 50.18613 | 3.50541 | 36926 ft | 465 kts | 209° |
| 2026-05-06 19:10 | 50.12920 | 3.45746 | 36918 ft | 465 kts | 209° |
| 2026-05-06 19:11 | 50.07217 | 3.40957 | 36930 ft | 465 kts | 209° |
| 2026-05-06 19:11 | 49.95928 | 3.31510 | 36937 ft | 465 kts | 209° |
| 2026-05-06 19:12 | 49.51807 | 2.95053 | 36957 ft | 467 kts | 208° |
| 2026-05-06 19:12 | 49.31301 | 2.78416 | 36934 ft | 467 kts | 208° |
| 2026-05-06 19:13 | 48.84371 | 2.41060 | 36952 ft | 466 kts | 203° |
| 2026-05-06 19:13 | 48.78282 | 2.37612 | 36960 ft | 468 kts | 200° |
| 2026-05-06 19:14 | 48.72120 | 2.34315 | 36969 ft | 469 kts | 201° |
| 2026-05-06 19:14 | 48.65979 | 2.30939 | 36968 ft | 469 kts | 201° |
| 2026-05-06 19:15 | 48.59859 | 2.27521 | 36957 ft | 468 kts | 201° |
| 2026-05-06 19:15 | 48.53791 | 2.24129 | 36961 ft | 468 kts | 201° |
| 2026-05-06 19:16 | 48.47672 | 2.20722 | 36954 ft | 468 kts | 201° |
| 2026-05-06 19:16 | 48.41545 | 2.17321 | 36938 ft | 469 kts | 201° |
| 2026-05-06 19:17 | 48.35409 | 2.13924 | 36946 ft | 470 kts | 201° |
| 2026-05-06 19:17 | 48.29151 | 2.11095 | 36940 ft | 472 kts | 189° |
| 2026-05-06 19:18 | 48.22591 | 2.11019 | 36942 ft | 475 kts | 172° |
| 2026-05-06 19:18 | 48.16069 | 2.11645 | 36965 ft | 472 kts | 187° |
| 2026-05-06 19:19 | 48.09644 | 2.09718 | 36960 ft | 472 kts | 193° |
| 2026-05-06 19:19 | 48.04268 | 2.07934 | 36961 ft | 472 kts | 193° |
| 2026-05-06 19:20 | 47.97498 | 2.05757 | 36961 ft | 472 kts | 193° |
| 2026-05-06 19:20 | 47.91075 | 2.03741 | 36965 ft | 472 kts | 193° |
| 2026-05-06 19:21 | 47.84633 | 2.01738 | 36963 ft | 471 kts | 193° |
| 2026-05-06 19:21 | 47.78352 | 1.99789 | 36937 ft | 471 kts | 193° |
| 2026-05-06 19:22 | 47.71932 | 1.97800 | 36938 ft | 471 kts | 193° |
| 2026-05-06 19:22 | 47.65504 | 1.95813 | 36944 ft | 471 kts | 193° |
| 2026-05-06 19:23 | 47.59080 | 1.93831 | 36947 ft | 471 kts | 193° |
| 2026-05-06 19:23 | 47.52660 | 1.91856 | 36948 ft | 471 kts | 193° |
| 2026-05-06 19:24 | 47.46242 | 1.89886 | 36944 ft | 471 kts | 193° |
| 2026-05-06 19:24 | 47.39813 | 1.87918 | 36951 ft | 471 kts | 193° |
| 2026-05-06 19:25 | 47.33428 | 1.85968 | 36962 ft | 471 kts | 193° |
| 2026-05-06 19:25 | 47.27000 | 1.84010 | 36964 ft | 471 kts | 193° |
| 2026-05-06 19:26 | 47.21652 | 1.82385 | 36965 ft | 471 kts | 193° |
| 2026-05-06 19:26 | 47.15214 | 1.80432 | 36955 ft | 471 kts | 193° |
| 2026-05-06 19:27 | 47.08777 | 1.78486 | 36965 ft | 471 kts | 193° |
| 2026-05-06 19:27 | 47.02357 | 1.76548 | 36972 ft | 471 kts | 193° |
| 2026-05-06 19:28 | 46.95932 | 1.74614 | 36969 ft | 471 kts | 193° |
| 2026-05-06 19:28 | 46.89494 | 1.72681 | 36966 ft | 471 kts | 193° |
| 2026-05-06 19:29 | 46.83104 | 1.70767 | 36969 ft | 472 kts | 193° |
| 2026-05-06 19:29 | 46.76670 | 1.68845 | 36971 ft | 471 kts | 193° |
| 2026-05-06 19:30 | 46.70241 | 1.66928 | 36965 ft | 472 kts | 193° |
| 2026-05-06 19:30 | 46.63813 | 1.65017 | 36968 ft | 472 kts | 193° |
| 2026-05-06 19:31 | 46.57380 | 1.63109 | 36971 ft | 472 kts | 193° |
| 2026-05-06 19:31 | 46.47729 | 1.60255 | 36964 ft | 472 kts | 193° |
| 2026-05-06 19:32 | 46.41296 | 1.58358 | 36965 ft | 472 kts | 193° |
| 2026-05-06 19:32 | 46.34893 | 1.56474 | 36958 ft | 472 kts | 193° |
| 2026-05-06 19:33 | 46.28457 | 1.54586 | 36959 ft | 472 kts | 193° |
| 2026-05-06 19:33 | 46.22020 | 1.52701 | 36962 ft | 472 kts | 193° |
| 2026-05-06 19:34 | 46.15586 | 1.50822 | 36947 ft | 472 kts | 193° |
| 2026-05-06 19:34 | 46.09144 | 1.48946 | 36956 ft | 471 kts | 193° |
| 2026-05-06 19:35 | 46.02702 | 1.47073 | 36947 ft | 472 kts | 193° |
| 2026-05-06 19:35 | 45.96304 | 1.45218 | 36947 ft | 471 kts | 193° |
| 2026-05-06 19:36 | 45.89912 | 1.43369 | 36943 ft | 471 kts | 193° |
| 2026-05-06 19:36 | 45.83475 | 1.41511 | 36939 ft | 471 kts | 193° |
| 2026-05-06 19:37 | 45.77035 | 1.39657 | 36943 ft | 471 kts | 193° |
| 2026-05-06 19:37 | 45.70615 | 1.37813 | 36937 ft | 470 kts | 193° |
| 2026-05-06 19:38 | 45.64192 | 1.35973 | 36942 ft | 470 kts | 193° |
| 2026-05-06 19:38 | 45.57790 | 1.34143 | 36941 ft | 470 kts | 193° |
| 2026-05-06 19:39 | 45.51419 | 1.32326 | 36950 ft | 469 kts | 193° |
| 2026-05-06 19:39 | 45.45027 | 1.30507 | 36939 ft | 469 kts | 193° |
| 2026-05-06 19:40 | 45.38629 | 1.28690 | 36939 ft | 469 kts | 193° |
| 2026-05-06 19:40 | 45.32227 | 1.26877 | 36939 ft | 468 kts | 193° |
| 2026-05-06 19:41 | 45.25826 | 1.25068 | 36946 ft | 468 kts | 193° |
| 2026-05-06 19:41 | 45.19441 | 1.23267 | 36945 ft | 468 kts | 193° |
| 2026-05-06 19:42 | 45.13090 | 1.21481 | 36955 ft | 468 kts | 193° |
| 2026-05-06 19:42 | 45.06699 | 1.19687 | 36961 ft | 467 kts | 193° |
| 2026-05-06 19:43 | 45.00315 | 1.17899 | 36958 ft | 467 kts | 193° |
| 2026-05-06 19:43 | 44.93933 | 1.16116 | 36951 ft | 467 kts | 193° |
| 2026-05-06 19:44 | 44.87589 | 1.14348 | 36949 ft | 467 kts | 193° |
| 2026-05-06 19:44 | 44.81208 | 1.12573 | 36955 ft | 467 kts | 193° |
| 2026-05-06 19:45 | 44.74821 | 1.10800 | 36958 ft | 467 kts | 193° |
| 2026-05-06 19:45 | 44.68439 | 1.09033 | 36957 ft | 468 kts | 193° |
| 2026-05-06 19:46 | 44.62053 | 1.07269 | 36955 ft | 468 kts | 193° |
| 2026-05-06 19:46 | 44.55668 | 1.05509 | 36956 ft | 467 kts | 194° |
| 2026-05-06 19:47 | 44.49276 | 1.03751 | 36965 ft | 467 kts | 194° |
| 2026-05-06 19:47 | 44.42897 | 1.02001 | 36966 ft | 467 kts | 193° |
| 2026-05-06 19:48 | 44.36558 | 1.00265 | 36957 ft | 466 kts | 194° |
| 2026-05-06 19:48 | 44.30265 | 0.98546 | 36966 ft | 465 kts | 194° |
| 2026-05-06 19:49 | 44.23960 | 0.96827 | 36973 ft | 465 kts | 194° |
| 2026-05-06 19:49 | 44.17609 | 0.95099 | 36966 ft | 464 kts | 194° |
| 2026-05-06 19:50 | 44.11262 | 0.93377 | 36980 ft | 464 kts | 194° |
| 2026-05-06 19:50 | 44.04923 | 0.91660 | 36984 ft | 464 kts | 194° |
| 2026-05-06 19:51 | 43.98594 | 0.89950 | 36975 ft | 463 kts | 194° |
| 2026-05-06 19:51 | 43.92279 | 0.88247 | 36977 ft | 462 kts | 194° |
| 2026-05-06 19:52 | 43.86010 | 0.86560 | 36982 ft | 462 kts | 194° |
| 2026-05-06 19:52 | 43.79700 | 0.84866 | 36980 ft | 461 kts | 194° |
| 2026-05-06 19:53 | 43.73413 | 0.83182 | 37001 ft | 460 kts | 194° |
| 2026-05-06 19:53 | 43.67127 | 0.81501 | 36987 ft | 460 kts | 194° |
| 2026-05-06 19:54 | 43.60837 | 0.79823 | 36988 ft | 460 kts | 194° |
| 2026-05-06 19:54 | 43.54560 | 0.78152 | 36997 ft | 459 kts | 194° |
| 2026-05-06 19:55 | 43.48283 | 0.76484 | 37005 ft | 459 kts | 194° |
| 2026-05-06 19:55 | 43.41999 | 0.74818 | 36997 ft | 459 kts | 194° |
| 2026-05-06 19:56 | 43.35743 | 0.73164 | 37008 ft | 457 kts | 194° |
| 2026-05-06 19:56 | 43.29498 | 0.71516 | 37017 ft | 457 kts | 194° |
| 2026-05-06 19:57 | 43.23287 | 0.69879 | 37021 ft | 457 kts | 194° |
| 2026-05-06 19:57 | 43.17047 | 0.68239 | 37022 ft | 456 kts | 195° |
| 2026-05-06 19:58 | 43.10811 | 0.66603 | 37027 ft | 456 kts | 195° |
| 2026-05-06 19:58 | 43.04575 | 0.64971 | 37026 ft | 456 kts | 195° |
| 2026-05-06 19:59 | 42.98354 | 0.63346 | 37025 ft | 456 kts | 195° |
| 2026-05-06 19:59 | 42.92154 | 0.61729 | 37025 ft | 457 kts | 195° |
| 2026-05-06 20:00 | 42.85917 | 0.60106 | 37016 ft | 455 kts | 195° |
| 2026-05-06 20:00 | 42.79684 | 0.58488 | 37003 ft | 457 kts | 195° |
| 2026-05-06 20:01 | 42.73439 | 0.56870 | 37016 ft | 455 kts | 195° |
| 2026-05-06 20:01 | 42.67342 | 0.54697 | 37001 ft | 449 kts | 208° |
| 2026-05-06 20:02 | 42.61785 | 0.51096 | 37005 ft | 448 kts | 209° |
| 2026-05-06 20:02 | 42.56172 | 0.47426 | 36996 ft | 446 kts | 209° |
| 2026-05-06 20:03 | 42.50556 | 0.43814 | 36975 ft | 446 kts | 209° |
| 2026-05-06 20:03 | 42.44941 | 0.40238 | 36974 ft | 447 kts | 208° |
| 2026-05-06 20:04 | 42.39331 | 0.36674 | 36951 ft | 448 kts | 208° |
| 2026-05-06 20:04 | 42.33696 | 0.33102 | 36955 ft | 447 kts | 208° |
| 2026-05-06 20:05 | 42.28065 | 0.29537 | 36944 ft | 446 kts | 208° |
| 2026-05-06 20:05 | 42.22446 | 0.25988 | 36950 ft | 446 kts | 208° |
| 2026-05-06 20:06 | 42.16824 | 0.22443 | 36933 ft | 445 kts | 208° |
| 2026-05-06 20:06 | 42.11229 | 0.18922 | 36936 ft | 443 kts | 208° |
| 2026-05-06 20:07 | 42.05495 | 0.15794 | 36934 ft | 449 kts | 199° |
| 2026-05-06 20:07 | 41.99271 | 0.14544 | 36943 ft | 454 kts | 190° |
| 2026-05-06 20:08 | 41.92986 | 0.13678 | 36933 ft | 454 kts | 191° |
| 2026-05-06 20:08 | 41.86750 | 0.12786 | 36940 ft | 453 kts | 191° |
| 2026-05-06 20:09 | 41.80479 | 0.11857 | 36938 ft | 453 kts | 191° |
| 2026-05-06 20:09 | 41.74211 | 0.10919 | 36931 ft | 452 kts | 191° |
| 2026-05-06 20:10 | 41.67958 | 0.09984 | 36940 ft | 452 kts | 191° |
| 2026-05-06 20:10 | 41.61702 | 0.09052 | 36940 ft | 452 kts | 191° |
| 2026-05-06 20:11 | 41.55451 | 0.08124 | 36929 ft | 452 kts | 191° |
| 2026-05-06 20:11 | 41.49207 | 0.07198 | 36940 ft | 451 kts | 191° |
| 2026-05-06 20:12 | 41.42995 | 0.06280 | 36947 ft | 451 kts | 191° |
| 2026-05-06 20:12 | 41.36750 | 0.05357 | 36948 ft | 451 kts | 191° |
| 2026-05-06 20:13 | 41.31562 | 0.04593 | 36933 ft | 450 kts | 191° |
| 2026-05-06 20:13 | 41.25350 | 0.03680 | 36947 ft | 448 kts | 191° |
| 2026-05-06 20:14 | 41.19143 | 0.02768 | 36948 ft | 448 kts | 191° |
| 2026-05-06 20:14 | 41.12951 | 0.01860 | 36947 ft | 448 kts | 191° |
| 2026-05-06 20:15 | 41.06760 | 0.00955 | 36949 ft | 447 kts | 191° |
| 2026-05-06 20:15 | 41.00580 | 0.00056 | 36956 ft | 446 kts | 191° |
| 2026-05-06 20:16 | 40.94546 | -0.00819 | 36964 ft | 447 kts | 191° |
| 2026-05-06 20:16 | 40.88368 | -0.01714 | 36957 ft | 446 kts | 191° |
| 2026-05-06 20:17 | 40.82207 | -0.02603 | 36896 ft | 443 kts | 191° |
| 2026-05-06 20:17 | 40.76085 | -0.03485 | 36964 ft | 440 kts | 191° |
| 2026-05-06 20:18 | 40.69988 | -0.04366 | 36982 ft | 445 kts | 191° |
| 2026-05-06 20:18 | 40.63804 | -0.05254 | 36981 ft | 448 kts | 192° |
| 2026-05-06 20:19 | 40.57751 | -0.06152 | 36951 ft | 432 kts | 192° |
| 2026-05-06 20:19 | 40.54822 | -0.06740 | 36941 ft | 421 kts | 199° |
| 2026-05-06 20:19 | 40.52048 | -0.07807 | 36970 ft | 411 kts | 202° |
| 2026-05-06 20:20 | 40.46671 | -0.10017 | 36916 ft | 399 kts | 202° |
| 2026-05-06 20:20 | 40.41457 | -0.12104 | 36921 ft | 389 kts | 202° |
| 2026-05-06 20:21 | 40.36338 | -0.14121 | 36916 ft | 380 kts | 202° |
| 2026-05-06 20:21 | 40.31259 | -0.16081 | 36928 ft | 384 kts | 201° |
| 2026-05-06 20:22 | 40.28674 | -0.17088 | 36806 ft | 391 kts | 202° |
| 2026-05-06 20:22 | 40.26071 | -0.18112 | 36426 ft | 390 kts | 202° |
| 2026-05-06 20:22 | 40.23466 | -0.19141 | 35729 ft | 392 kts | 202° |
| 2026-05-06 20:22 | 40.20845 | -0.20181 | 35019 ft | 395 kts | 203° |
| 2026-05-06 20:23 | 40.18196 | -0.21232 | 34329 ft | 399 kts | 203° |
| 2026-05-06 20:23 | 40.15541 | -0.22284 | 33643 ft | 400 kts | 203° |
| 2026-05-06 20:23 | 40.12864 | -0.23341 | 32849 ft | 402 kts | 202° |
| 2026-05-06 20:23 | 40.10179 | -0.24400 | 32019 ft | 405 kts | 202° |
| 2026-05-06 20:24 | 40.07466 | -0.25468 | 31204 ft | 408 kts | 202° |
| 2026-05-06 20:24 | 40.04744 | -0.26539 | 30398 ft | 410 kts | 202° |
| 2026-05-06 20:24 | 40.04060 | -0.26808 | 30191 ft | 411 kts | 202° |
| 2026-05-06 20:25 | 40.01781 | -0.27704 | 29353 ft | 413 kts | 201° |
| 2026-05-06 20:25 | 40.00805 | -0.28088 | 28931 ft | 415 kts | 201° |
| 2026-05-06 20:25 | 39.97986 | -0.29190 | 27669 ft | 423 kts | 200° |
| 2026-05-06 20:25 | 39.95172 | -0.30274 | 26437 ft | 431 kts | 200° |
| 2026-05-06 20:26 | 39.92271 | -0.31388 | 25245 ft | 438 kts | 200° |
| 2026-05-06 20:26 | 39.89346 | -0.32510 | 24420 ft | 436 kts | 199° |
| 2026-05-06 20:26 | 39.86446 | -0.33628 | 23736 ft | 431 kts | 200° |
| 2026-05-06 20:26 | 39.83592 | -0.34739 | 22976 ft | 427 kts | 199° |
| 2026-05-06 20:27 | 39.80762 | -0.35842 | 22202 ft | 422 kts | 199° |
| 2026-05-06 20:27 | 39.77951 | -0.36938 | 21438 ft | 418 kts | 199° |
| 2026-05-06 20:27 | 39.75177 | -0.38018 | 20712 ft | 414 kts | 199° |
| 2026-05-06 20:27 | 39.72429 | -0.39087 | 20000 ft | 411 kts | 199° |
| 2026-05-06 20:28 | 39.69703 | -0.40145 | 19308 ft | 407 kts | 199° |
| 2026-05-06 20:28 | 39.66989 | -0.41197 | 18634 ft | 405 kts | 199° |
| 2026-05-06 20:28 | 39.64299 | -0.42239 | 17936 ft | 401 kts | 199° |
| 2026-05-06 20:28 | 39.61633 | -0.43271 | 17190 ft | 398 kts | 199° |
| 2026-05-06 20:29 | 39.58994 | -0.44291 | 16477 ft | 395 kts | 199° |
| 2026-05-06 20:29 | 39.56367 | -0.45306 | 15765 ft | 392 kts | 199° |
| 2026-05-06 20:29 | 39.53765 | -0.46310 | 15068 ft | 390 kts | 199° |
| 2026-05-06 20:29 | 39.51174 | -0.47310 | 14400 ft | 387 kts | 199° |
| 2026-05-06 20:30 | 39.48605 | -0.48300 | 13753 ft | 384 kts | 198° |
| 2026-05-06 20:30 | 39.43486 | -0.50169 | 12379 ft | 379 kts | 197° |
| 2026-05-06 20:30 | 39.40989 | -0.51052 | 11728 ft | 376 kts | 197° |
| 2026-05-06 20:31 | 39.38470 | -0.51941 | 11095 ft | 374 kts | 197° |
| 2026-05-06 20:31 | 39.35968 | -0.52825 | 10457 ft | 369 kts | 197° |
| 2026-05-06 20:31 | 39.33561 | -0.53677 | 10157 ft | 347 kts | 197° |
| 2026-05-06 20:31 | 39.31307 | -0.54474 | 10017 ft | 324 kts | 197° |
| 2026-05-06 20:32 | 39.29211 | -0.55216 | 9950 ft | 302 kts | 197° |
| 2026-05-06 20:32 | 39.27257 | -0.55908 | 9945 ft | 280 kts | 197° |
| 2026-05-06 20:32 | 39.25442 | -0.56550 | 9937 ft | 262 kts | 197° |
| 2026-05-06 20:32 | 39.23707 | -0.57165 | 9950 ft | 257 kts | 197° |
| 2026-05-06 20:33 | 39.21978 | -0.57779 | 9965 ft | 258 kts | 197° |
| 2026-05-06 20:33 | 39.20234 | -0.58399 | 9971 ft | 260 kts | 197° |
| 2026-05-06 20:33 | 39.18487 | -0.59020 | 9971 ft | 261 kts | 197° |
| 2026-05-06 20:33 | 39.16725 | -0.59645 | 9971 ft | 262 kts | 197° |
| 2026-05-06 20:34 | 39.14986 | -0.60262 | 9976 ft | 262 kts | 197° |
| 2026-05-06 20:34 | 39.13206 | -0.60892 | 9971 ft | 262 kts | 197° |
| 2026-05-06 20:34 | 39.11471 | -0.61507 | 9964 ft | 261 kts | 197° |
| 2026-05-06 20:34 | 39.09722 | -0.62125 | 9961 ft | 260 kts | 197° |
| 2026-05-06 20:35 | 39.07972 | -0.62744 | 9943 ft | 260 kts | 197° |
| 2026-05-06 20:35 | 39.06230 | -0.63359 | 9953 ft | 259 kts | 197° |
| 2026-05-06 20:35 | 39.04499 | -0.63970 | 9952 ft | 258 kts | 197° |
| 2026-05-06 20:35 | 39.02752 | -0.64587 | 9960 ft | 268 kts | 197° |
| 2026-05-06 20:36 | 39.00831 | -0.65267 | 9977 ft | 301 kts | 196° |
| 2026-05-06 20:36 | 38.98711 | -0.66017 | 9970 ft | 333 kts | 196° |
| 2026-05-06 20:36 | 38.96388 | -0.66837 | 9951 ft | 360 kts | 196° |
| 2026-05-06 20:36 | 38.93960 | -0.67692 | 9935 ft | 361 kts | 196° |
| 2026-05-06 20:37 | 38.91555 | -0.68536 | 9917 ft | 344 kts | 196° |
| 2026-05-06 20:37 | 38.89326 | -0.69318 | 9855 ft | 329 kts | 196° |
| 2026-05-06 20:37 | 38.87159 | -0.70077 | 9757 ft | 316 kts | 197° |
| 2026-05-06 20:37 | 38.85081 | -0.70805 | 9670 ft | 304 kts | 197° |
| 2026-05-06 20:38 | 38.83082 | -0.71506 | 9582 ft | 292 kts | 197° |
| 2026-05-06 20:38 | 38.81154 | -0.72181 | 9500 ft | 282 kts | 196° |
| 2026-05-06 20:38 | 38.79299 | -0.72831 | 9421 ft | 271 kts | 197° |
| 2026-05-06 20:38 | 38.77503 | -0.73460 | 9351 ft | 261 kts | 196° |
| 2026-05-06 20:39 | 38.75777 | -0.74063 | 9188 ft | 255 kts | 196° |
| 2026-05-06 20:39 | 38.74062 | -0.74665 | 8925 ft | 254 kts | 196° |
| 2026-05-06 20:39 | 38.72383 | -0.75253 | 8656 ft | 253 kts | 197° |
| 2026-05-06 20:39 | 38.70684 | -0.75849 | 8374 ft | 253 kts | 196° |
| 2026-05-06 20:40 | 38.68991 | -0.76441 | 8148 ft | 251 kts | 196° |
| 2026-05-06 20:40 | 38.67319 | -0.77025 | 7968 ft | 247 kts | 196° |
| 2026-05-06 20:40 | 38.65665 | -0.77603 | 7691 ft | 247 kts | 195° |
| 2026-05-06 20:40 | 38.64003 | -0.78182 | 7445 ft | 246 kts | 195° |
| 2026-05-06 20:41 | 38.62348 | -0.78759 | 7396 ft | 248 kts | 195° |
| 2026-05-06 20:41 | 38.60678 | -0.79341 | 7370 ft | 248 kts | 195° |
| 2026-05-06 20:41 | 38.59015 | -0.79921 | 7361 ft | 246 kts | 195° |
| 2026-05-06 20:41 | 38.57364 | -0.80496 | 7360 ft | 246 kts | 195° |
| 2026-05-06 20:42 | 38.55704 | -0.81073 | 7368 ft | 246 kts | 195° |
| 2026-05-06 20:42 | 38.54054 | -0.81648 | 7283 ft | 244 kts | 195° |
| 2026-05-06 20:42 | 38.52406 | -0.82167 | 7045 ft | 243 kts | 192° |
| 2026-05-06 20:42 | 38.50752 | -0.82650 | 6754 ft | 244 kts | 192° |
| 2026-05-06 20:43 | 38.49101 | -0.83129 | 6525 ft | 243 kts | 192° |
| 2026-05-06 20:43 | 38.47453 | -0.83608 | 6285 ft | 242 kts | 191° |
| 2026-05-06 20:43 | 38.45817 | -0.84085 | 6037 ft | 241 kts | 191° |
| 2026-05-06 20:43 | 38.44205 | -0.84556 | 5809 ft | 240 kts | 191° |
| 2026-05-06 20:44 | 38.42562 | -0.85037 | 5563 ft | 239 kts | 191° |
| 2026-05-06 20:44 | 38.40966 | -0.85505 | 5336 ft | 237 kts | 191° |
| 2026-05-06 20:44 | 38.39358 | -0.85976 | 5123 ft | 237 kts | 191° |
| 2026-05-06 20:44 | 38.37760 | -0.86446 | 4930 ft | 235 kts | 191° |
| 2026-05-06 20:45 | 38.36166 | -0.86913 | 4678 ft | 235 kts | 190° |
| 2026-05-06 20:45 | 38.34580 | -0.87362 | 4464 ft | 232 kts | 185° |
| 2026-05-06 20:45 | 38.33044 | -0.87048 | 4245 ft | 225 kts | 145° |
| 2026-05-06 20:45 | 38.32071 | -0.85522 | 4254 ft | 223 kts | 107° |
| 2026-05-06 20:46 | 38.31906 | -0.83648 | 4159 ft | 208 kts | 93° |
| 2026-05-06 20:46 | 38.31831 | -0.81829 | 3914 ft | 202 kts | 96° |
| 2026-05-06 20:46 | 38.31632 | -0.80086 | 3656 ft | 196 kts | 101° |
| 2026-05-06 20:46 | 38.31393 | -0.78418 | 3401 ft | 190 kts | 101° |
| 2026-05-06 20:47 | 38.31157 | -0.76778 | 3151 ft | 187 kts | 101° |
| 2026-05-06 20:47 | 38.30928 | -0.75160 | 2896 ft | 184 kts | 99° |
| 2026-05-06 20:47 | 38.30707 | -0.73584 | 2656 ft | 177 kts | 99° |
| 2026-05-06 20:47 | 38.30494 | -0.72079 | 2436 ft | 169 kts | 99° |
| 2026-05-06 20:48 | 38.30293 | -0.70657 | 2257 ft | 156 kts | 99° |
| 2026-05-06 20:48 | 38.30109 | -0.69345 | 2014 ft | 145 kts | 99° |
| 2026-05-06 20:48 | 38.29935 | -0.68105 | 1833 ft | 141 kts | 99° |
| 2026-05-06 20:48 | 38.29763 | -0.66880 | 1654 ft | 141 kts | 99° |
| 2026-05-06 20:49 | 38.29591 | -0.65651 | 1461 ft | 143 kts | 99° |
| 2026-05-06 20:49 | 38.29416 | -0.64406 | 1285 ft | 143 kts | 99° |
| 2026-05-06 20:49 | 38.29240 | -0.63150 | 1072 ft | 143 kts | 99° |
| 2026-05-06 20:49 | 38.29068 | -0.61917 | 911 ft | 139 kts | 99° |
| 2026-05-06 20:50 | 38.28893 | -0.60678 | 736 ft | 144 kts | 99° |
| 2026-05-06 20:50 | 38.28720 | -0.59414 | 513 ft | 145 kts | 99° |
| 2026-05-06 20:50 | 38.28545 | -0.58167 | 277 ft | 140 kts | 100° |
| 2026-05-06 20:50 | 38.28387 | -0.56988 | 126 ft | 127 kts | 101° |
| 2026-05-06 20:51 | 38.28251 | -0.56019 | 104 ft | 89 kts | 101° |
| 2026-05-06 20:51 | 38.28263 | -0.55478 | 90 ft | 20 kts | 66° |
| 2026-05-06 20:51 | 38.28298 | -0.55376 | 91 ft | 17 kts | 70° |
| 2026-05-06 20:51 | 38.28383 | -0.55169 | 80 ft | 26 kts | 38° |
| 2026-05-06 20:52 | 38.28514 | -0.55176 | 88 ft | 16 kts | 9° |
| 2026-05-06 20:52 | 38.47540 | -0.83583 | 6442 ft | 242 kts | 191° |
| 2026-05-06 20:52 | 38.28764 | -0.59720 | 566 ft | 145 kts | 99° |
| 2026-05-06 20:52 | 38.28597 | -0.58515 | 337 ft | 142 kts | 99° |